Time;durP1;ratioP1;P1;durP2;ratioP2;P2;SDS_P1;SDS_P2;PMS_P1;PMS_P2;Temp;Humidity;BMP_temperature;BMP_pressure;BME280_temperature;BME280_humidity;BME280_pressure;Samples;Min_cycle;Max_cycle;Signal;HPM_P1;HPM_P2
2021/04/08 00:01:24;;;;;;;20.88;2.08;;;1.80;99.90;;;;;;5087544;28;20114;-70
2021/04/08 00:03:50;;;;;;;10.98;1.90;;;1.70;99.90;;;;;;5088518;28;20122;-71
2021/04/08 00:06:16;;;;;;;11.38;2.15;;;1.80;99.90;;;;;;5116019;27;20161;-70
2021/04/08 00:08:41;;;;;;;10.32;1.23;;;1.70;99.90;;;;;;5087611;28;20035;-71
2021/04/08 00:11:08;;;;;;;15.07;1.70;;;1.70;99.90;;;;;;5092450;28;20051;-70
2021/04/08 00:13:35;;;;;;;12.57;1.38;;;1.80;99.90;;;;;;5092524;28;20052;-70
2021/04/08 00:16:02;;;;;;;12.93;1.73;;;1.80;99.90;;;;;;5091852;28;20044;-70
2021/04/08 00:18:28;;;;;;;12.90;1.13;;;1.70;99.90;;;;;;5094064;28;20060;-70
2021/04/08 00:20:54;;;;;;;13.18;1.25;;;1.80;99.90;;;;;;5089458;28;20032;-70
2021/04/08 00:23:21;;;;;;;16.67;2.05;;;1.90;99.90;;;;;;5087984;28;20122;-71
2021/04/08 00:25:47;;;;;;;13.05;1.95;;;1.90;99.90;;;;;;5085413;28;20155;-70
2021/04/08 00:28:13;;;;;;;8.75;0.75;;;1.90;99.90;;;;;;5089188;28;20565;-70
2021/04/08 00:30:45;;;;;;;13.15;2.50;;;1.90;99.90;;;;;;5091835;28;20044;-70
2021/04/08 00:33:16;;;;;;;16.63;1.55;;;1.90;99.90;;;;;;5083359;28;20033;-71
2021/04/08 00:35:43;;;;;;;10.63;1.50;;;2.00;99.90;;;;;;5087517;28;20489;-71
2021/04/08 00:38:09;;;;;;;9.68;0.95;;;1.90;99.90;;;;;;5088274;28;20058;-71
2021/04/08 00:40:36;;;;;;;9.68;1.30;;;2.00;99.90;;;;;;5086642;28;20047;-71
2021/04/08 00:43:03;;;;;;;13.15;1.08;;;2.00;99.90;;;;;;5086530;28;20036;-71
2021/04/08 00:45:29;;;;;;;12.40;0.80;;;1.90;99.90;;;;;;5088153;28;20058;-71
2021/04/08 00:47:56;;;;;;;10.07;1.00;;;1.90;99.90;;;;;;5092142;28;20132;-70
2021/04/08 00:50:22;;;;;;;7.82;1.00;;;1.90;99.90;;;;;;5088926;28;20105;-71
2021/04/08 00:53:14;;;;;;;14.38;0.95;;;2.40;99.90;;;;;;5092889;28;20047;-70
2021/04/08 00:55:42;;;;;;;9.57;0.85;;;1.90;99.90;;;;;;5090017;28;20543;-70
2021/04/08 00:58:08;;;;;;;5.95;0.88;;;2.20;99.90;;;;;;5087069;28;20058;-70
2021/04/08 01:00:36;;;;;;;5.45;0.73;;;1.90;99.90;;;;;;5089938;28;20546;-70
2021/04/08 01:03:02;;;;;;;16.17;2.75;;;1.80;99.90;;;;;;5091630;28;20046;-70
2021/04/08 01:05:29;;;;;;;9.85;0.73;;;1.80;99.90;;;;;;5088404;28;20044;-70
2021/04/08 01:07:55;;;;;;;4.95;0.70;;;1.90;99.90;;;;;;5091194;28;20028;-71
2021/04/08 01:10:23;;;;;;;9.13;1.55;;;2.50;99.90;;;;;;5091210;28;20390;-70
2021/04/08 01:12:55;;;;;;;12.93;0.93;;;1.80;99.90;;;;;;5091496;28;20051;-70
2021/04/08 01:15:23;;;;;;;11.43;0.80;;;1.80;99.90;;;;;;5092913;28;20032;-70
2021/04/08 01:18:04;;;;;;;7.68;0.85;;;1.70;99.90;;;;;;5093422;28;20067;-70
2021/04/08 01:20:54;;;;;;;7.43;1.65;;;1.70;99.90;;;;;;5092489;28;20485;-71
2021/04/08 01:23:46;;;;;;;7.30;0.68;;;1.70;99.90;;;;;;5091048;28;20050;-70
2021/04/08 01:26:21;;;;;;;7.75;0.50;;;1.70;99.90;;;;;;5092247;28;20051;-70
2021/04/08 01:28:54;;;;;;;5.20;0.60;;;1.70;99.90;;;;;;5085338;28;20044;-70
2021/04/08 01:31:21;;;;;;;6.47;0.52;;;1.70;99.90;;;;;;5089120;28;20106;-71
2021/04/08 01:34:04;;;;;;;12.93;1.13;;;1.70;99.90;;;;;;5089533;28;20074;-70
2021/04/08 01:36:34;;;;;;;6.97;0.57;;;1.70;99.90;;;;;;5091368;28;20051;-70
2021/04/08 01:39:08;;;;;;;8.48;0.65;;;1.70;99.90;;;;;;5117838;27;20043;-70
2021/04/08 01:41:39;;;;;;;7.78;0.85;;;1.80;99.90;;;;;;5117119;27;20451;-71
2021/04/08 01:44:07;;;;;;;10.85;0.68;;;1.80;99.90;;;;;;5118440;27;20060;-70
2021/04/08 01:46:36;;;;;;;6.68;0.55;;;1.80;99.90;;;;;;5088128;28;20078;-69
2021/04/08 01:49:04;;;;;;;5.85;0.60;;;1.80;99.90;;;;;;5088605;28;20165;-70
2021/04/08 01:51:32;;;;;;;7.28;0.70;;;1.90;99.90;;;;;;5087335;28;20107;-70
2021/04/08 01:54:00;;;;;;;5.97;0.70;;;1.90;99.90;;;;;;5089474;28;20036;-71
2021/04/08 01:56:32;;;;;;;7.15;0.68;;;1.90;99.90;;;;;;5088242;28;20126;-70
2021/04/08 01:59:00;;;;;;;12.05;1.20;;;1.90;99.90;;;;;;5087800;28;21560;-70
2021/04/08 02:01:27;;;;;;;11.07;1.20;;;1.90;99.90;;;;;;5086722;28;20050;-70
2021/04/08 02:03:54;;;;;;;8.90;0.75;;;1.90;99.90;;;;;;5088902;28;20040;-71
2021/04/08 02:06:23;;;;;;;7.00;0.80;;;1.90;99.90;;;;;;5087795;28;20067;-70
2021/04/08 02:08:51;;;;;;;9.82;1.35;;;1.90;99.90;;;;;;5087094;28;20041;-70
2021/04/08 02:11:18;;;;;;;12.43;1.00;;;1.90;99.90;;;;;;5088926;28;20055;-71
2021/04/08 02:13:47;;;;;;;6.50;0.80;;;1.90;99.90;;;;;;5087016;28;20043;-71
2021/04/08 02:16:16;;;;;;;11.00;0.85;;;1.90;99.90;;;;;;5088959;28;20047;-71
2021/04/08 02:18:42;;;;;;;6.25;0.57;;;2.00;99.90;;;;;;5090159;28;20081;-71
2021/04/08 02:21:10;;;;;;;9.23;0.90;;;2.00;99.90;;;;;;5088688;28;20035;-71
2021/04/08 02:23:40;;;;;;;8.93;0.77;;;2.00;99.90;;;;;;5085397;28;20050;-71
2021/04/08 02:26:10;;;;;;;7.50;1.33;;;2.00;99.90;;;;;;5084627;28;20058;-70
2021/04/08 02:28:37;;;;;;;10.15;0.77;;;2.10;99.90;;;;;;5086709;28;20041;-71
2021/04/08 02:31:04;;;;;;;7.95;0.60;;;2.10;99.90;;;;;;5084880;28;20429;-71
2021/04/08 02:33:31;;;;;;;6.35;0.90;;;2.10;99.90;;;;;;5086589;28;20040;-71
2021/04/08 02:35:59;;;;;;;9.15;0.60;;;2.10;99.90;;;;;;5087326;28;20109;-70
2021/04/08 02:38:32;;;;;;;8.75;1.20;;;2.10;99.90;;;;;;5087993;28;20098;-71
2021/04/08 02:40:59;;;;;;;7.43;0.65;;;2.20;99.90;;;;;;5086997;28;20070;-71
2021/04/08 02:43:25;;;;;;;4.35;0.60;;;2.20;99.90;;;;;;5087651;28;20043;-70
2021/04/08 02:45:51;;;;;;;6.70;0.93;;;2.20;99.90;;;;;;5088987;28;20043;-71
2021/04/08 02:48:18;;;;;;;6.93;1.02;;;2.20;99.90;;;;;;5087024;28;20416;-72
2021/04/08 02:50:50;;;;;;;8.25;1.85;;;2.20;99.90;;;;;;5088144;28;20040;-70
2021/04/08 02:53:27;;;;;;;6.15;0.77;;;2.20;99.90;;;;;;5085197;28;20398;-70
2021/04/08 02:56:14;;;;;;;9.07;0.60;;;2.20;99.90;;;;;;5112455;27;20032;-70
2021/04/08 02:58:41;;;;;;;6.07;0.70;;;2.20;99.90;;;;;;5087911;28;20062;-71
2021/04/08 03:01:13;;;;;;;4.65;0.60;;;2.30;99.90;;;;;;5086787;28;20046;-71
2021/04/08 03:03:50;;;;;;;11.18;1.45;;;2.20;99.90;;;;;;5087870;28;20040;-70
2021/04/08 03:06:17;;;;;;;7.45;0.60;;;2.20;99.90;;;;;;5086451;28;20097;-70
2021/04/08 03:08:47;;;;;;;6.70;0.77;;;2.20;99.90;;;;;;5070018;28;20070;-70
2021/04/08 03:11:21;;;;;;;6.72;1.45;;;2.20;99.90;;;;;;5085343;28;20040;-71
2021/04/08 03:13:49;;;;;;;5.32;0.63;;;2.20;99.90;;;;;;5084758;28;20032;-70
2021/04/08 03:16:22;;;;;;;10.85;1.13;;;2.20;99.90;;;;;;5085046;28;20414;-70
2021/04/08 03:18:51;;;;;;;8.50;1.73;;;2.10;99.90;;;;;;5085586;28;20055;-68
2021/04/08 03:21:17;;;;;;;7.55;0.70;;;2.10;99.90;;;;;;5084852;28;20041;-71
2021/04/08 03:23:45;;;;;;;4.82;0.60;;;2.10;99.90;;;;;;5085624;28;20079;-71
2021/04/08 03:26:12;;;;;;;13.80;0.95;;;2.10;99.90;;;;;;5085090;28;20060;-70
2021/04/08 03:28:39;;;;;;;7.22;0.75;;;2.10;99.90;;;;;;5087301;28;20044;-70
2021/04/08 03:31:06;;;;;;;9.82;1.23;;;2.10;99.90;;;;;;5086787;28;20050;-70
2021/04/08 03:33:35;;;;;;;3.88;0.80;;;2.10;99.90;;;;;;5087041;28;20036;-70
2021/04/08 03:36:02;;;;;;;8.63;0.50;;;2.00;99.90;;;;;;5089264;28;20036;-70
2021/04/08 03:38:29;;;;;;;8.20;1.00;;;2.00;99.90;;;;;;5091056;28;20048;-70
2021/04/08 03:41:02;;;;;;;9.27;0.80;;;2.00;99.90;;;;;;5091119;28;20035;-70
2021/04/08 03:43:28;;;;;;;8.10;0.88;;;2.00;99.90;;;;;;5089042;28;20036;-70
2021/04/08 03:46:01;;;;;;;8.48;0.63;;;2.00;99.90;;;;;;5091058;28;20094;-71
2021/04/08 03:48:31;;;;;;;7.50;0.75;;;2.00;99.90;;;;;;5090304;28;20055;-70
2021/04/08 03:50:57;;;;;;;8.23;0.88;;;2.20;99.90;;;;;;5091087;28;20044;-68
2021/04/08 03:53:24;;;;;;;6.70;0.70;;;2.00;99.90;;;;;;5089053;28;20036;-70
2021/04/08 03:55:51;;;;;;;11.65;1.17;;;2.00;99.90;;;;;;5089467;28;20051;-70
2021/04/08 03:58:17;;;;;;;8.93;0.90;;;2.00;99.90;;;;;;5091396;28;20143;-70
2021/04/08 04:00:44;;;;;;;7.82;1.05;;;2.00;99.90;;;;;;5092224;28;20043;-70
2021/04/08 04:03:13;;;;;;;3.15;0.45;;;1.90;99.90;;;;;;5106673;28;20063;-70
2021/04/08 04:05:41;;;;;;;4.93;0.60;;;1.90;99.90;;;;;;5092569;28;20055;-71
2021/04/08 04:08:08;;;;;;;9.05;1.00;;;1.40;99.90;;;;;;5091815;28;20039;-69
2021/04/08 04:10:41;;;;;;;9.40;0.95;;;1.90;99.90;;;;;;5088856;28;20050;-71
2021/04/08 04:13:10;;;;;;;8.65;0.52;;;1.90;99.90;;;;;;5089115;28;20029;-70
2021/04/08 04:15:38;;;;;;;8.57;2.42;;;1.90;99.90;;;;;;5090230;28;20048;-71
2021/04/08 04:18:08;;;;;;;4.47;0.60;;;1.90;99.90;;;;;;5089803;28;20442;-70
2021/04/08 04:20:35;;;;;;;8.60;0.60;;;1.90;99.90;;;;;;5090159;28;20072;-70
2021/04/08 04:23:05;;;;;;;6.75;0.75;;;1.90;99.90;;;;;;5092004;28;20050;-70
2021/04/08 04:25:32;;;;;;;7.70;0.68;;;2.00;99.90;;;;;;5093142;28;20051;-70
2021/04/08 04:27:58;;;;;;;10.55;0.85;;;1.90;99.90;;;;;;5092552;28;20062;-70
2021/04/08 04:30:24;;;;;;;10.27;2.15;;;2.00;99.90;;;;;;5089438;28;20071;-70
2021/04/08 04:32:53;;;;;;;9.27;0.73;;;2.00;99.90;;;;;;5088754;28;20074;-70
2021/04/08 04:35:19;;;;;;;11.88;0.85;;;2.00;99.90;;;;;;5090191;28;20476;-69
2021/04/08 04:37:45;;;;;;;5.82;0.85;;;2.00;99.90;;;;;;5088963;28;20048;-70
2021/04/08 04:40:11;;;;;;;7.65;0.93;;;2.00;99.90;;;;;;5090875;28;20101;-70
2021/04/08 04:42:37;;;;;;;6.78;0.80;;;2.00;99.90;;;;;;5089927;28;20462;-69
2021/04/08 04:45:05;;;;;;;7.30;1.13;;;2.10;99.90;;;;;;5088704;28;20127;-70
2021/04/08 04:47:31;;;;;;;8.55;0.95;;;2.10;99.90;;;;;;5091325;28;20126;-70
2021/04/08 04:49:57;;;;;;;8.90;0.88;;;2.10;99.90;;;;;;5089640;28;20101;-70
2021/04/08 04:52:22;;;;;;;10.23;1.00;;;2.10;99.90;;;;;;5088731;28;20043;-70
2021/04/08 04:54:48;;;;;;;11.82;0.82;;;2.10;99.90;;;;;;5091226;28;20481;-70
2021/04/08 04:57:14;;;;;;;6.75;0.93;;;2.20;99.90;;;;;;5085003;28;20040;-70
2021/04/08 04:59:40;;;;;;;8.57;0.60;;;2.20;99.90;;;;;;5086707;28;20066;-70
2021/04/08 05:02:06;;;;;;;8.10;0.60;;;2.30;99.90;;;;;;5090325;28;20040;-70
2021/04/08 05:04:32;;;;;;;10.93;1.10;;;2.20;99.90;;;;;;5092361;28;20715;-70
2021/04/08 05:06:58;;;;;;;10.88;0.80;;;2.20;99.90;;;;;;5092644;28;20516;-70
2021/04/08 05:09:23;;;;;;;5.53;0.73;;;2.30;99.90;;;;;;5090479;28;20040;-69
2021/04/08 05:11:49;;;;;;;11.80;1.02;;;2.30;99.90;;;;;;5092473;28;20032;-70
2021/04/08 05:14:15;;;;;;;7.03;0.90;;;2.30;99.90;;;;;;5105648;28;20040;-70
2021/04/08 05:16:41;;;;;;;10.45;0.93;;;2.30;99.90;;;;;;5092640;28;20531;-70
2021/04/08 05:19:07;;;;;;;7.80;0.60;;;2.30;99.90;;;;;;5091566;28;20040;-71
2021/04/08 05:21:33;;;;;;;3.85;0.65;;;2.40;99.90;;;;;;5091498;28;20072;-71
2021/04/08 05:23:59;;;;;;;8.15;0.63;;;2.40;99.90;;;;;;5092229;28;20050;-71
2021/04/08 05:26:26;;;;;;;6.07;1.05;;;2.40;99.90;;;;;;5091301;28;20048;-71
2021/04/08 05:28:51;;;;;;;5.68;0.82;;;2.50;99.90;;;;;;5089017;28;20494;-70
2021/04/08 05:31:17;;;;;;;6.03;0.93;;;2.80;99.90;;;;;;5087015;28;20079;-70
2021/04/08 05:33:43;;;;;;;5.97;1.00;;;3.10;99.90;;;;;;5089999;28;20474;-71
2021/04/08 05:36:09;;;;;;;3.33;0.60;;;3.30;99.90;;;;;;5089376;28;20046;-71
2021/04/08 05:38:35;;;;;;;11.98;1.20;;;3.70;99.30;;;;;;5090001;28;20054;-71
2021/04/08 05:41:01;;;;;;;6.53;0.80;;;3.70;99.20;;;;;;5089396;28;20103;-70
2021/04/08 05:43:26;;;;;;;6.45;0.75;;;3.50;98.90;;;;;;5091565;28;20082;-71
2021/04/08 05:45:52;;;;;;;5.85;0.40;;;3.40;99.20;;;;;;5089137;28;20051;-70
2021/04/08 05:48:18;;;;;;;5.80;0.57;;;3.30;99.50;;;;;;5092191;28;20075;-71
2021/04/08 05:50:44;;;;;;;7.10;0.82;;;3.20;99.90;;;;;;5086615;28;20064;-70
2021/04/08 05:53:10;;;;;;;3.47;0.45;;;3.10;99.90;;;;;;5089302;28;20080;-70
2021/04/08 05:55:36;;;;;;;7.28;0.40;;;3.00;99.90;;;;;;5090512;28;20106;-71
2021/04/08 05:58:02;;;;;;;12.90;0.85;;;3.00;99.90;;;;;;5088539;28;20048;-71
2021/04/08 06:00:28;;;;;;;8.27;1.17;;;3.10;99.90;;;;;;5087065;28;20036;-70
2021/04/08 06:02:55;;;;;;;4.00;1.02;;;3.00;99.90;;;;;;5085781;28;20043;-71
2021/04/08 06:05:21;;;;;;;5.30;0.57;;;3.10;99.90;;;;;;5089916;28;20036;-70
2021/04/08 06:07:47;;;;;;;6.75;0.98;;;3.10;99.90;;;;;;5087952;28;20039;-71
2021/04/08 06:10:15;;;;;;;5.00;0.50;;;3.20;99.90;;;;;;5089586;28;20521;-70
2021/04/08 06:12:42;;;;;;;5.60;1.10;;;3.00;99.90;;;;;;5089871;28;20044;-70
2021/04/08 06:15:09;;;;;;;5.65;0.75;;;3.00;99.90;;;;;;5088824;28;20082;-70
2021/04/08 06:17:35;;;;;;;8.27;0.77;;;3.10;99.90;;;;;;5088870;28;20039;-71
2021/04/08 06:20:04;;;;;;;3.67;0.50;;;3.00;99.90;;;;;;5089813;28;20036;-70
2021/04/08 06:22:30;;;;;;;4.45;0.75;;;3.00;99.90;;;;;;5089574;28;20064;-70
2021/04/08 06:24:55;;;;;;;3.35;0.77;;;3.10;99.90;;;;;;5089280;28;20074;-70
2021/04/08 06:27:22;;;;;;;6.53;0.52;;;3.00;99.90;;;;;;5086748;28;20052;-71
2021/04/08 06:29:48;;;;;;;4.82;0.70;;;3.10;99.90;;;;;;5119297;27;20036;-70
2021/04/08 06:32:13;;;;;;;3.42;0.73;;;3.20;99.90;;;;;;5119687;27;20043;-70
2021/04/08 06:34:44;;;;;;;5.65;0.50;;;3.10;99.90;;;;;;5088488;28;20036;-71
2021/04/08 06:37:10;;;;;;;8.35;0.50;;;3.20;99.90;;;;;;5088806;28;20117;-71
2021/04/08 06:39:36;;;;;;;3.47;0.68;;;3.20;99.90;;;;;;5092504;28;20043;-71
2021/04/08 06:42:05;;;;;;;5.20;0.50;;;3.30;99.90;;;;;;5094667;28;20040;-70
2021/04/08 06:44:35;;;;;;;7.30;0.63;;;3.30;99.90;;;;;;5088856;28;20085;-71
2021/04/08 06:47:05;;;;;;;10.02;0.88;;;3.30;99.90;;;;;;5089368;28;20621;-71
2021/04/08 06:49:37;;;;;;;8.07;0.80;;;3.40;99.90;;;;;;5088330;28;20059;-71
2021/04/08 06:52:05;;;;;;;9.15;1.10;;;3.40;99.90;;;;;;5087184;28;20535;-71
2021/04/08 06:54:34;;;;;;;7.13;0.75;;;3.50;99.90;;;;;;5089161;28;20044;-71
2021/04/08 06:57:01;;;;;;;6.13;0.75;;;3.60;99.90;;;;;;5088138;28;20398;-71
2021/04/08 06:59:27;;;;;;;8.23;0.60;;;3.70;99.90;;;;;;5089482;28;20040;-71
2021/04/08 07:01:54;;;;;;;3.67;0.52;;;3.90;99.90;;;;;;5088948;28;20035;-71
2021/04/08 07:04:20;;;;;;;7.93;0.73;;;4.40;99.90;;;;;;5089528;28;20040;-71
2021/04/08 07:06:46;;;;;;;7.15;0.80;;;4.60;98.90;;;;;;5088462;28;20051;-71
2021/04/08 07:09:13;;;;;;;5.07;0.82;;;4.50;98.60;;;;;;5088008;28;20127;-72
2021/04/08 07:11:40;;;;;;;5.57;0.63;;;4.60;98.70;;;;;;5090396;28;20040;-71
2021/04/08 07:14:09;;;;;;;6.00;0.90;;;4.60;99.10;;;;;;5089527;28;20414;-71
2021/04/08 07:16:36;;;;;;;5.85;0.63;;;4.60;99.10;;;;;;5090573;28;20577;-71
2021/04/08 07:19:04;;;;;;;5.75;0.85;;;4.60;99.10;;;;;;5092082;28;20546;-72
2021/04/08 07:21:33;;;;;;;7.20;0.95;;;4.70;99.20;;;;;;5090423;28;20032;-72
2021/04/08 07:24:08;;;;;;;4.10;1.35;;;4.70;99.10;;;;;;5090452;28;20040;-71
2021/04/08 07:26:52;;;;;;;7.35;0.80;;;4.80;99.20;;;;;;5089083;28;20546;-71
2021/04/08 07:29:23;;;;;;;5.22;0.82;;;4.90;98.60;;;;;;5090361;28;20048;-71
2021/04/08 07:31:49;;;;;;;7.72;1.13;;;4.90;98.80;;;;;;5090413;28;20052;-70
2021/04/08 07:34:36;;;;;;;7.45;0.60;;;4.90;99.00;;;;;;5090592;28;20036;-72
2021/04/08 07:37:03;;;;;;;5.45;0.57;;;5.00;98.70;;;;;;5088294;28;20386;-71
2021/04/08 07:39:44;;;;;;;4.30;0.70;;;5.20;98.50;;;;;;5088860;28;20068;-71
2021/04/08 07:42:16;;;;;;;6.47;1.30;;;5.30;98.70;;;;;;5086484;28;20036;-71
2021/04/08 07:44:51;;;;;;;5.70;1.15;;;5.50;98.20;;;;;;5088910;28;20048;-71
2021/04/08 07:47:19;;;;;;;6.50;0.90;;;5.30;98.40;;;;;;5089189;28;20044;-72
2021/04/08 07:49:47;;;;;;;3.65;0.55;;;5.20;98.00;;;;;;5091752;28;20798;-71
2021/04/08 07:52:38;;;;;;;6.00;0.93;;;5.20;98.20;;;;;;5089194;28;20044;-71
2021/04/08 07:55:13;;;;;;;4.18;0.60;;;5.20;98.60;;;;;;5091878;28;20047;-71
2021/04/08 07:57:53;;;;;;;5.82;0.57;;;5.80;98.40;;;;;;5093422;28;20044;-72
2021/04/08 08:00:27;;;;;;;5.80;0.85;;;6.50;97.00;;;;;;5092742;28;20090;-72
2021/04/08 08:02:54;;;;;;;8.85;0.82;;;6.60;96.00;;;;;;5088902;28;20480;-72
2021/04/08 08:05:28;;;;;;;5.82;1.20;;;6.50;96.20;;;;;;5091096;28;20052;-72
2021/04/08 08:08:20;;;;;;;8.25;1.10;;;6.40;96.10;;;;;;5087832;28;20059;-73
2021/04/08 08:10:56;;;;;;;6.43;1.05;;;6.60;96.70;;;;;;5106148;28;20073;-72
2021/04/08 08:13:27;;;;;;;8.13;1.20;;;7.20;96.50;;;;;;5090119;28;20367;-72
2021/04/08 08:15:55;;;;;;;8.45;1.45;;;7.60;95.80;;;;;;5088669;28;20177;-73
2021/04/08 08:18:28;;;;;;;5.22;1.00;;;7.50;94.50;;;;;;5087693;28;20071;-73
2021/04/08 08:21:13;;;;;;;8.90;1.58;;;7.40;94.40;;;;;;5090322;28;20040;-73
2021/04/08 08:23:44;;;;;;;5.53;1.10;;;7.40;94.80;;;;;;5093615;28;20036;-73
2021/04/08 08:26:37;;;;;;;6.53;1.20;;;7.20;94.40;;;;;;5091670;28;20051;-73
2021/04/08 08:29:13;;;;;;;3.95;0.73;;;7.00;94.60;;;;;;5090815;28;20036;-73
2021/04/08 08:31:50;;;;;;;10.43;1.15;;;6.80;94.20;;;;;;5091511;28;20039;-73
2021/04/08 08:34:28;;;;;;;6.60;1.10;;;6.70;94.90;;;;;;5090446;28;20552;-71
2021/04/08 08:36:56;;;;;;;10.63;1.30;;;6.60;95.40;;;;;;5089000;28;20105;-72
2021/04/08 08:39:29;;;;;;;9.98;1.50;;;6.50;96.00;;;;;;5090496;28;20105;-72
2021/04/08 08:41:56;;;;;;;7.20;1.75;;;6.50;95.30;;;;;;5090105;28;20174;-73
2021/04/08 08:44:22;;;;;;;10.43;1.77;;;6.50;95.30;;;;;;5091085;28;20040;-73
2021/04/08 08:47:01;;;;;;;8.15;1.23;;;6.40;95.50;;;;;;5091487;28;20050;-73
2021/04/08 08:49:32;;;;;;;7.93;1.05;;;6.40;95.60;;;;;;5090891;28;20032;-73
2021/04/08 08:52:00;;;;;;;5.15;1.17;;;6.30;95.70;;;;;;5091186;28;20036;-73
2021/04/08 08:54:28;;;;;;;4.93;1.10;;;6.30;95.80;;;;;;5089512;28;20036;-72
2021/04/08 08:56:57;;;;;;;6.85;1.23;;;6.30;96.00;;;;;;5091992;28;20506;-72
2021/04/08 08:59:25;;;;;;;6.03;0.98;;;6.30;96.00;;;;;;5093291;28;20040;-73
2021/04/08 09:01:52;;;;;;;9.73;1.17;;;6.30;96.20;;;;;;5091487;28;20081;-73
2021/04/08 09:04:18;;;;;;;7.35;1.80;;;6.30;95.80;;;;;;5092075;28;20108;-72
2021/04/08 09:06:46;;;;;;;6.10;1.50;;;6.40;95.90;;;;;;5091745;28;20452;-73
2021/04/08 09:09:15;;;;;;;9.02;2.28;;;6.40;95.40;;;;;;5091744;28;20070;-72
2021/04/08 09:11:46;;;;;;;8.05;1.45;;;6.50;95.60;;;;;;5090500;28;20071;-73
2021/04/08 09:14:14;;;;;;;7.18;1.58;;;6.60;95.60;;;;;;5090232;28;20046;-72
2021/04/08 09:16:45;;;;;;;7.72;2.25;;;6.70;95.90;;;;;;5088590;28;20117;-72
2021/04/08 09:19:11;;;;;;;7.20;1.90;;;6.90;95.60;;;;;;5091267;28;20052;-72
2021/04/08 09:21:46;;;;;;;12.30;1.90;;;7.00;95.30;;;;;;5090982;28;20039;-72
2021/04/08 09:24:16;;;;;;;4.47;1.65;;;7.00;94.00;;;;;;5090187;28;20060;-71
2021/04/08 09:26:44;;;;;;;15.10;1.77;;;7.00;93.20;;;;;;5088723;28;20048;-72
2021/04/08 09:29:15;;;;;;;7.78;1.65;;;7.00;93.70;;;;;;5090880;28;20067;-71
2021/04/08 09:31:42;;;;;;;12.43;1.52;;;7.00;92.10;;;;;;5090657;28;20127;-72
2021/04/08 09:34:08;;;;;;;11.23;1.50;;;7.10;93.70;;;;;;5090916;28;20162;-72
2021/04/08 09:36:40;;;;;;;6.63;1.23;;;7.10;94.00;;;;;;5091300;28;20123;-71
2021/04/08 09:39:06;;;;;;;6.13;1.55;;;7.10;92.60;;;;;;5089003;28;20367;-72
2021/04/08 09:41:47;;;;;;;10.75;1.65;;;7.10;92.70;;;;;;5090211;28;20032;-72
2021/04/08 09:44:14;;;;;;;6.60;1.10;;;7.20;93.30;;;;;;5090212;28;20043;-72
2021/04/08 09:47:01;;;;;;;8.27;1.58;;;7.30;92.10;;;;;;5090588;28;20051;-72
2021/04/08 09:49:39;;;;;;;6.43;1.27;;;7.30;91.20;;;;;;5090750;28;20035;-72
2021/04/08 09:52:05;;;;;;;5.00;1.20;;;7.40;90.30;;;;;;5089834;28;20494;-72
2021/04/08 09:54:52;;;;;;;6.00;1.60;;;7.50;90.40;;;;;;5090150;28;20043;-72
2021/04/08 09:57:37;;;;;;;6.10;1.85;;;7.50;90.70;;;;;;5089738;28;20040;-72
2021/04/08 10:00:16;;;;;;;9.00;2.25;;;7.70;89.90;;;;;;5088879;28;20048;-72
2021/04/08 10:02:59;;;;;;;3.03;1.45;;;7.70;89.00;;;;;;5090304;28;20036;-71
2021/04/08 10:05:39;;;;;;;7.85;1.77;;;7.50;88.10;;;;;;5091858;28;20092;-72
2021/04/08 10:08:06;;;;;;;5.47;1.35;;;7.50;87.00;;;;;;5095257;28;20043;-72
2021/04/08 10:10:37;;;;;;;5.63;1.63;;;7.60;89.50;;;;;;5088422;28;20051;-72
2021/04/08 10:13:25;;;;;;;6.25;2.30;;;7.60;89.00;;;;;;5090330;28;20043;-72
2021/04/08 10:15:53;;;;;;;5.50;1.30;;;7.60;87.80;;;;;;5088936;28;20097;-72
2021/04/08 10:18:24;;;;;;;4.95;1.33;;;7.70;86.70;;;;;;5091248;28;20107;-72
2021/04/08 10:21:14;;;;;;;6.03;1.60;;;7.80;87.10;;;;;;5089539;28;20039;-72
2021/04/08 10:24:00;;;;;;;4.32;1.17;;;7.80;89.70;;;;;;5091930;28;20036;-72
2021/04/08 10:26:46;;;;;;;3.90;1.60;;;7.90;87.90;;;;;;5093428;28;20067;-71
2021/04/08 10:29:33;;;;;;;6.75;1.23;;;8.00;88.40;;;;;;5089900;28;20087;-73
2021/04/08 10:32:01;;;;;;;7.35;1.38;;;8.10;82.90;;;;;;5090621;28;20151;-73
2021/04/08 10:34:39;;;;;;;7.18;1.35;;;8.00;79.40;;;;;;5117722;27;20066;-73
2021/04/08 10:37:07;;;;;;;6.65;1.55;;;8.00;79.20;;;;;;5090974;28;20088;-73
2021/04/08 10:39:39;;;;;;;7.38;1.60;;;7.80;78.80;;;;;;5090714;28;20048;-72
2021/04/08 10:42:13;;;;;;;5.82;1.77;;;7.70;80.00;;;;;;5088711;28;20078;-72
2021/04/08 10:44:41;;;;;;;6.55;1.50;;;7.50;80.30;;;;;;5090199;28;20105;-72
2021/04/08 10:47:11;;;;;;;5.47;2.05;;;7.50;82.20;;;;;;5089320;28;20040;-71
2021/04/08 10:49:52;;;;;;;3.35;1.50;;;7.50;76.00;;;;;;5089145;28;20137;-70
2021/04/08 10:52:20;;;;;;;2.13;1.38;;;7.50;72.00;;;;;;5089060;28;20032;-72
2021/04/08 10:54:54;;;;;;;3.88;1.80;;;7.60;70.70;;;;;;5091793;28;20040;-71
2021/04/08 10:57:22;;;;;;;5.35;1.98;;;7.80;77.80;;;;;;5070754;28;20393;-71
2021/04/08 10:59:49;;;;;;;2.95;2.28;;;8.20;76.80;;;;;;5090419;28;20039;-72
2021/04/08 11:02:24;;;;;;;11.40;2.72;;;8.30;72.70;;;;;;5086265;28;20113;-72
2021/04/08 11:04:53;;;;;;;2.90;2.17;;;8.30;69.10;;;;;;5090240;28;20040;-71
2021/04/08 11:07:20;;;;;;;4.05;2.00;;;8.30;73.20;;;;;;5090494;28;20062;-72
2021/04/08 11:09:47;;;;;;;8.05;2.35;;;8.40;68.80;;;;;;5090554;28;20038;-71
2021/04/08 11:12:26;;;;;;;4.03;2.03;;;8.30;68.30;;;;;;5090050;28;20105;-72
2021/04/08 11:14:57;;;;;;;5.03;3.15;;;8.40;67.50;;;;;;5088133;28;20044;-71
2021/04/08 11:17:28;;;;;;;3.78;2.05;;;8.30;67.30;;;;;;5088799;28;20036;-71
2021/04/08 11:19:56;;;;;;;4.32;2.70;;;8.30;69.40;;;;;;5088664;28;20039;-72
2021/04/08 11:22:25;;;;;;;5.00;2.47;;;8.20;68.80;;;;;;5089578;28;20478;-72
2021/04/08 11:24:54;;;;;;;6.70;2.70;;;8.20;69.50;;;;;;5116607;27;20032;-72
2021/04/08 11:27:39;;;;;;;4.90;2.28;;;8.30;66.80;;;;;;5089807;28;20051;-72
2021/04/08 11:30:08;;;;;;;4.00;2.42;;;8.00;67.20;;;;;;5089916;28;20046;-72
2021/04/08 11:32:49;;;;;;;6.82;3.00;;;8.00;70.00;;;;;;5089219;28;20043;-72
2021/04/08 11:35:30;;;;;;;5.03;2.65;;;7.90;67.10;;;;;;5086765;28;20064;-71
2021/04/08 11:38:31;;;;;;;4.20;2.58;;;7.80;68.80;;;;;;5088369;28;20036;-72
2021/04/08 11:40:59;;;;;;;14.88;3.20;;;7.80;68.10;;;;;;5083695;28;20085;-72
2021/04/08 11:43:31;;;;;;;7.13;3.40;;;7.80;68.60;;;;;;5117403;28;20590;-72
2021/04/08 11:46:05;;;;;;;7.90;2.88;;;7.90;73.30;;;;;;5087156;28;20036;-71
2021/04/08 11:48:46;;;;;;;7.65;3.20;;;7.90;73.20;;;;;;5088417;28;20469;-72
2021/04/08 11:51:13;;;;;;;7.55;3.30;;;7.80;71.90;;;;;;5087301;28;20055;-72
2021/04/08 11:53:40;;;;;;;9.88;3.60;;;7.70;72.40;;;;;;5090665;28;20047;-72
2021/04/08 11:56:29;;;;;;;10.40;3.58;;;7.60;73.90;;;;;;5093752;28;20064;-72
2021/04/08 11:59:14;;;;;;;4.72;3.13;;;7.60;74.30;;;;;;5092357;28;20040;-72
2021/04/08 12:01:43;;;;;;;13.15;3.90;;;7.50;73.50;;;;;;5093286;28;20130;-72
2021/04/08 12:04:11;;;;;;;7.30;3.90;;;7.50;74.80;;;;;;5093481;28;20048;-72
2021/04/08 12:06:45;;;;;;;6.50;3.58;;;7.40;76.70;;;;;;5093623;28;20047;-71
2021/04/08 12:09:11;;;;;;;7.03;3.63;;;7.50;75.70;;;;;;5094971;28;20036;-72
2021/04/08 12:11:55;;;;;;;13.18;4.18;;;7.70;77.10;;;;;;5095773;28;20039;-72
2021/04/08 12:14:22;;;;;;;6.47;3.80;;;7.80;77.30;;;;;;5092952;28;20093;-72
2021/04/08 12:17:06;;;;;;;8.10;4.72;;;8.10;75.30;;;;;;5094372;28;20044;-72
2021/04/08 12:19:33;;;;;;;6.82;4.13;;;8.20;74.20;;;;;;5093951;28;20039;-72
2021/04/08 12:22:02;;;;;;;9.02;4.40;;;8.30;74.80;;;;;;5095587;28;20485;-72
2021/04/08 12:24:28;;;;;;;7.10;4.40;;;8.30;72.20;;;;;;5094294;28;20056;-72
2021/04/08 12:26:54;;;;;;;8.18;5.20;;;8.40;74.50;;;;;;5096226;28;20134;-71
2021/04/08 12:29:21;;;;;;;7.53;4.15;;;8.40;75.20;;;;;;5094731;28;20142;-72
2021/04/08 12:31:51;;;;;;;5.75;4.43;;;8.40;72.60;;;;;;5088214;28;20050;-72
2021/04/08 12:34:18;;;;;;;6.18;4.60;;;8.60;80.50;;;;;;5094736;28;20039;-71
2021/04/08 12:36:44;;;;;;;7.05;4.60;;;8.60;72.20;;;;;;5086789;28;20028;-71
2021/04/08 12:39:10;;;;;;;8.95;5.03;;;8.50;72.80;;;;;;5091315;28;20047;-72
2021/04/08 12:41:37;;;;;;;7.43;4.95;;;8.50;75.50;;;;;;5092413;28;20089;-72
2021/04/08 12:44:04;;;;;;;8.45;4.80;;;8.60;77.50;;;;;;5095214;28;20039;-70
2021/04/08 12:46:30;;;;;;;10.55;5.85;;;8.50;71.30;;;;;;5094969;28;20097;-73
2021/04/08 12:48:56;;;;;;;7.53;5.35;;;8.60;75.80;;;;;;5094493;28;20489;-71
2021/04/08 12:51:22;;;;;;;7.50;4.68;;;8.70;76.00;;;;;;5092029;28;20078;-72
2021/04/08 12:53:48;;;;;;;7.38;4.70;;;8.80;75.00;;;;;;5093614;28;20486;-71
2021/04/08 12:56:15;;;;;;;8.88;4.57;;;8.80;74.60;;;;;;5094329;28;20047;-72
2021/04/08 12:58:41;;;;;;;9.13;4.72;;;9.00;76.10;;;;;;5093110;28;20052;-71
2021/04/08 13:01:07;;;;;;;9.05;5.25;;;9.00;71.70;;;;;;5093673;28;20049;-71
2021/04/08 13:03:33;;;;;;;8.15;5.82;;;9.00;73.50;;;;;;5090073;28;20085;-71
2021/04/08 13:05:59;;;;;;;11.93;5.10;;;8.90;75.20;;;;;;5090835;28;20389;-72
2021/04/08 13:08:25;;;;;;;6.32;5.72;;;8.90;73.20;;;;;;5093050;28;20055;-72
2021/04/08 13:10:51;;;;;;;9.18;5.45;;;8.80;77.10;;;;;;5092988;28;20082;-72